createdAt,value
2022-11-24T00:04:56.699Z,48.42
2022-11-24T00:07:44.230Z,48.27
2022-11-24T00:10:26.921Z,48.13
2022-11-24T00:13:04.243Z,48.82
2022-11-24T00:16:07.249Z,48.83
2022-11-24T00:18:51.433Z,48.85
2022-11-24T00:24:45.246Z,51.47
2022-11-24T00:27:51.853Z,53.19
2022-11-24T00:46:35.088Z,54.14
2022-11-24T00:49:07.441Z,54.23
2022-11-24T00:51:47.908Z,53.50
2022-11-24T00:57:18.578Z,52.78
2022-11-24T01:00:36.692Z,52.68
2022-11-24T01:03:24.392Z,52.13
2022-11-24T01:09:27.650Z,51.73
2022-11-24T01:12:20.987Z,50.87
2022-11-24T01:21:32.989Z,49.46
2022-11-24T01:27:22.621Z,49.57
2022-11-24T01:30:04.958Z,49.83
2022-11-24T01:35:56.463Z,49.45
2022-11-24T01:38:30.167Z,49.37
2022-11-24T01:41:12.173Z,49.21
2022-11-24T01:47:02.023Z,49.46
2022-11-24T01:49:53.409Z,49.78
2022-11-24T01:52:33.254Z,49.87
2022-11-24T01:55:12.126Z,50.14
2022-11-24T01:58:06.711Z,49.77
2022-11-24T02:00:37.744Z,50.31
2022-11-24T02:06:00.212Z,50.26
2022-11-24T02:08:47.420Z,50.48
2022-11-24T02:11:17.111Z,50.77
2022-11-24T02:14:01.621Z,50.80
2022-11-24T02:16:31.321Z,50.70
2022-11-24T02:19:00.375Z,50.33
2022-11-24T02:21:30.760Z,50.27
2022-11-24T02:24:22.670Z,50.42
2022-11-24T02:27:14.538Z,50.20
2022-11-24T02:29:44.124Z,50.00
2022-11-24T02:32:13.509Z,50.28
2022-11-24T02:34:41.601Z,50.48
2022-11-24T02:37:09.906Z,50.49
2022-11-24T02:39:38.579Z,50.52
2022-11-24T02:42:13.185Z,50.17
2022-11-24T02:44:49.513Z,49.95
2022-11-24T02:47:18.058Z,50.07
2022-11-24T02:49:47.210Z,50.02
2022-11-24T02:52:16.258Z,49.99
2022-11-24T02:54:44.720Z,50.38
2022-11-24T02:57:16.803Z,50.27
2022-11-24T02:59:58.423Z,50.64
2022-11-24T03:02:27.550Z,50.84
2022-11-24T03:04:56.127Z,51.12
2022-11-24T03:07:24.392Z,51.31
2022-11-24T03:09:52.873Z,51.45
2022-11-24T03:12:22.564Z,51.58
2022-11-24T03:14:50.802Z,51.76
2022-11-24T03:17:19.598Z,51.78
2022-11-24T03:19:50.489Z,52.13
2022-11-24T03:22:19.200Z,52.10
2022-11-24T03:24:47.707Z,52.48
2022-11-24T03:27:16.124Z,52.34
2022-11-24T03:29:45.795Z,52.80
2022-11-24T03:32:14.915Z,52.61
2022-11-24T03:34:43.354Z,53.41
2022-11-24T03:37:12.135Z,53.05
2022-11-24T03:39:40.370Z,53.01
2022-11-24T03:42:09.229Z,53.21
2022-11-24T03:44:37.860Z,53.07
2022-11-24T03:47:07.540Z,53.09
2022-11-24T03:49:36.070Z,53.19
2022-11-24T03:52:07.983Z,53.39
2022-11-24T03:54:37.263Z,53.58
2022-11-24T03:57:06.755Z,53.44
2022-11-24T03:59:35.354Z,53.35
2022-11-24T04:02:04.019Z,53.60
2022-11-24T04:04:36.114Z,53.43
2022-11-24T04:07:04.379Z,53.37
2022-11-24T04:09:32.933Z,53.33
2022-11-24T04:12:18.810Z,53.54
2022-11-24T04:14:47.172Z,53.49
2022-11-24T04:17:15.379Z,53.41
2022-11-24T04:19:45.039Z,53.73
2022-11-24T04:22:13.160Z,53.82
2022-11-24T04:24:41.345Z,54.07
2022-11-24T04:27:09.424Z,53.90
2022-11-24T04:29:37.458Z,54.00
2022-11-24T04:32:06.321Z,53.98
2022-11-24T04:34:35.149Z,54.07
2022-11-24T04:37:05.685Z,54.06
2022-11-24T04:39:34.113Z,54.01
2022-11-24T04:42:02.528Z,54.18
2022-11-24T04:44:32.849Z,54.29
2022-11-24T04:47:02.087Z,54.43
2022-11-24T04:49:30.400Z,54.59
2022-11-24T04:51:58.634Z,54.67
2022-11-24T04:54:28.424Z,54.79
2022-11-24T04:56:56.962Z,54.39
2022-11-24T04:59:25.191Z,54.70
2022-11-24T05:01:53.480Z,54.70
2022-11-24T05:04:22.442Z,54.74
2022-11-24T05:06:50.660Z,54.83
2022-11-24T05:09:19.237Z,55.14
2022-11-24T05:11:49.932Z,55.00
2022-11-24T05:14:18.060Z,54.84
2022-11-24T05:16:46.480Z,55.32
2022-11-24T05:19:15.190Z,55.57
2022-11-24T05:21:43.157Z,55.20
2022-11-24T05:24:12.287Z,55.34
2022-11-24T05:26:40.342Z,55.43
2022-11-24T05:29:10.034Z,55.51
2022-11-24T05:31:38.999Z,55.26
2022-11-24T05:34:07.217Z,55.70
2022-11-24T05:36:52.674Z,55.72
2022-11-24T05:39:20.957Z,55.64
2022-11-24T05:41:49.288Z,55.35
2022-11-24T05:44:19.020Z,56.00
2022-11-24T05:46:47.405Z,55.63
2022-11-24T05:49:15.498Z,55.88
2022-11-24T05:51:43.537Z,55.86
2022-11-24T05:54:11.557Z,55.85
2022-11-24T05:56:39.726Z,55.71
2022-11-24T05:59:09.990Z,55.86
2022-11-24T06:01:40.155Z,55.77
2022-11-24T06:04:08.366Z,55.70
2022-11-24T06:06:36.397Z,55.73
2022-11-24T06:09:05.028Z,55.86
2022-11-24T06:11:33.024Z,55.84
2022-11-24T06:14:01.110Z,55.82
2022-11-24T06:16:29.612Z,56.00
2022-11-24T06:18:59.175Z,55.91
2022-11-24T06:21:27.635Z,55.45
2022-11-24T06:23:56.274Z,55.77
2022-11-24T06:26:24.372Z,55.78
2022-11-24T06:28:52.471Z,55.78
2022-11-24T06:31:20.989Z,55.43
2022-11-24T06:33:49.261Z,55.67
2022-11-24T06:36:19.302Z,55.76
2022-11-24T06:38:48.128Z,55.78
2022-11-24T06:41:18.516Z,55.88
2022-11-24T06:43:52.323Z,55.85
2022-11-24T06:46:21.105Z,55.62
2022-11-24T06:48:49.525Z,55.75
2022-11-24T06:51:19.998Z,55.70
2022-11-24T06:53:49.415Z,55.66
2022-11-24T06:56:21.337Z,56.19
2022-11-24T06:58:52.306Z,55.87
2022-11-24T07:01:22.304Z,55.98
2022-11-24T07:03:51.883Z,55.97
2022-11-24T07:06:24.573Z,55.66
2022-11-24T07:08:53.648Z,55.73
2022-11-24T07:11:23.961Z,55.94
2022-11-24T07:13:59.899Z,55.94
2022-11-24T07:16:30.208Z,56.05
2022-11-24T07:18:58.852Z,56.02
2022-11-24T07:21:32.480Z,56.13
2022-11-24T07:24:01.328Z,56.17
2022-11-24T07:26:29.623Z,56.15
2022-11-24T07:28:58.559Z,56.42
2022-11-24T07:31:27.135Z,56.34
2022-11-24T07:33:58.275Z,56.49
2022-11-24T07:36:28.705Z,56.35
2022-11-24T07:38:57.026Z,56.54
2022-11-24T07:41:25.724Z,56.53
2022-11-24T07:43:59.850Z,56.50
2022-11-24T07:46:29.046Z,56.18
2022-11-24T07:48:57.345Z,56.33
2022-11-24T07:51:25.745Z,55.75
2022-11-24T07:53:55.945Z,55.82
2022-11-24T07:56:26.333Z,55.75
2022-11-24T07:59:08.223Z,56.00
2022-11-24T08:01:39.968Z,55.79
2022-11-24T08:04:08.953Z,55.76
2022-11-24T08:06:40.904Z,55.84
2022-11-24T08:09:13.227Z,55.81
2022-11-24T08:11:41.717Z,56.03
2022-11-24T08:14:14.613Z,55.94
2022-11-24T08:16:42.851Z,55.88
2022-11-24T08:19:12.156Z,55.76
2022-11-24T08:21:41.662Z,55.35
2022-11-24T08:24:14.037Z,55.51
2022-11-24T08:26:44.254Z,55.46
2022-11-24T08:29:15.770Z,55.54
2022-11-24T08:31:44.176Z,55.26
2022-11-24T08:34:22.868Z,55.02
2022-11-24T08:36:53.377Z,54.92
2022-11-24T08:39:21.537Z,55.00
2022-11-24T08:42:01.481Z,54.84
2022-11-24T08:44:29.948Z,54.82
2022-11-24T08:49:44.509Z,54.67
2022-11-24T08:52:12.742Z,54.86
2022-11-24T08:54:41.368Z,54.62
2022-11-24T08:57:12.607Z,54.86
2022-11-24T08:59:42.961Z,54.70
2022-11-24T09:02:13.401Z,55.03
2022-11-24T09:04:42.113Z,54.88
2022-11-24T09:07:10.187Z,55.23
2022-11-24T09:09:40.678Z,55.09
2022-11-24T09:12:14.714Z,55.21
2022-11-24T09:14:43.374Z,55.16
2022-11-24T09:17:12.109Z,55.04
2022-11-24T09:19:40.273Z,54.83
2022-11-24T09:22:10.014Z,54.68
2022-11-24T09:24:38.618Z,54.48
2022-11-24T09:27:06.997Z,54.36
2022-11-24T09:29:43.541Z,54.17
2022-11-24T09:32:14.193Z,54.42
2022-11-24T09:34:43.327Z,54.52
2022-11-24T09:37:24.277Z,54.52
2022-11-24T09:39:58.851Z,54.38
2022-11-24T09:42:53.545Z,54.33
2022-11-24T09:48:46.157Z,53.77
2022-11-24T09:51:16.329Z,53.71
2022-11-24T09:53:49.141Z,53.48
2022-11-24T09:56:22.484Z,53.52
2022-11-24T09:58:52.990Z,53.59
2022-11-24T10:01:30.506Z,53.38
2022-11-24T10:04:06.028Z,53.77
2022-11-24T10:06:41.077Z,53.77
2022-11-24T10:09:20.810Z,53.87
2022-11-24T10:11:59.923Z,54.04
2022-11-24T10:15:05.969Z,54.50
2022-11-24T10:17:49.925Z,54.58
2022-11-24T10:20:26.955Z,54.70
2022-11-24T10:23:09.511Z,54.87
2022-11-24T10:25:49.202Z,55.51
2022-11-24T10:28:17.621Z,55.19
2022-11-24T10:30:45.967Z,55.44
2022-11-24T10:33:19.721Z,55.56
2022-11-24T10:35:51.848Z,55.65
2022-11-24T10:38:35.718Z,55.58
2022-11-24T10:41:09.114Z,55.75
2022-11-24T10:43:37.320Z,55.59
2022-11-24T10:46:16.860Z,55.73
2022-11-24T10:48:59.275Z,55.76
2022-11-24T10:51:44.292Z,55.71
2022-11-24T10:54:20.829Z,55.78
2022-11-24T10:56:59.200Z,55.79
2022-11-24T10:59:41.075Z,55.87
2022-11-24T11:02:41.160Z,56.05
2022-11-24T11:05:43.725Z,56.43
2022-11-24T11:08:43.216Z,56.66
2022-11-24T11:11:45.365Z,57.21
2022-11-24T11:14:42.821Z,57.84
2022-11-24T11:17:47.643Z,57.58
2022-11-24T11:20:36.761Z,57.87
2022-11-24T11:23:22.103Z,57.91
2022-11-24T11:36:32.872Z,58.63
2022-11-24T11:39:06.828Z,58.67
2022-11-24T11:41:46.756Z,59.16
2022-11-24T11:46:56.830Z,59.23
2022-11-24T11:59:53.245Z,59.58
2022-11-24T12:06:48.156Z,60.03
2022-11-24T12:13:35.992Z,58.91
2022-11-24T12:16:45.628Z,57.92
2022-11-24T12:22:49.690Z,58.01
2022-11-24T12:25:52.566Z,57.79
2022-11-24T12:28:35.579Z,58.65
2022-11-24T12:31:19.582Z,57.92
2022-11-24T12:34:44.112Z,57.58
2022-11-24T12:38:02.750Z,56.91
2022-11-24T12:41:40.444Z,56.77
2022-11-24T12:50:59.032Z,56.26
2022-11-24T12:53:32.695Z,56.49
2022-11-24T12:56:09.179Z,56.48
2022-11-24T12:58:46.696Z,56.37
2022-11-24T13:01:26.248Z,56.31
2022-11-24T13:04:15.147Z,56.19
2022-11-24T13:06:53.051Z,56.53
2022-11-24T13:09:22.805Z,56.47
2022-11-24T13:11:57.872Z,55.81
2022-11-24T13:14:32.960Z,55.89
2022-11-24T13:17:28.636Z,55.63
2022-11-24T13:19:54.418Z,55.34
2022-11-24T13:22:32.151Z,55.17
2022-11-24T13:25:35.752Z,55.04
2022-11-24T13:28:11.403Z,55.25
2022-11-24T13:31:14.508Z,54.89
2022-11-24T13:34:05.447Z,54.43
2022-11-24T13:36:54.129Z,53.74
2022-11-24T13:39:50.349Z,54.32
2022-11-24T13:42:41.587Z,55.83
2022-11-24T13:46:03.873Z,56.97
2022-11-24T13:49:22.149Z,58.16
2022-11-24T13:52:13.894Z,59.02
2022-11-24T13:55:20.991Z,59.91
2022-11-24T13:57:57.662Z,60.19
2022-11-24T14:04:28.000Z,59.89
2022-11-24T14:07:24.918Z,60.18
2022-11-24T14:10:44.129Z,59.87
2022-11-24T14:23:34.376Z,61.27
2022-11-24T14:26:14.503Z,61.39
2022-11-24T14:28:50.670Z,61.04
2022-11-24T14:31:59.109Z,61.70
2022-11-24T14:34:54.173Z,60.99
2022-11-24T14:37:24.802Z,60.14
2022-11-24T14:39:58.182Z,59.97
2022-11-24T14:42:43.975Z,59.70
2022-11-24T14:45:27.103Z,59.03
2022-11-24T14:48:23.900Z,58.09
2022-11-24T14:50:53.307Z,57.20
2022-11-24T14:53:43.761Z,57.37
2022-11-24T14:56:33.025Z,56.24
2022-11-24T14:59:05.347Z,55.68
2022-11-24T15:01:44.945Z,54.67
2022-11-24T15:04:54.788Z,53.13
2022-11-24T15:07:27.413Z,53.25
2022-11-24T15:16:18.861Z,51.00
2022-11-24T15:18:55.483Z,51.09
2022-11-24T15:21:39.158Z,51.45
2022-11-24T15:24:35.561Z,51.49
2022-11-24T15:30:26.882Z,52.39
2022-11-24T15:36:05.335Z,53.13
2022-11-24T15:38:40.484Z,53.02
2022-11-24T15:41:40.645Z,53.05
2022-11-24T15:44:13.003Z,53.38
2022-11-24T15:47:23.423Z,53.72
2022-11-24T15:49:54.694Z,53.63
2022-11-24T15:52:31.874Z,53.19
2022-11-24T15:55:09.316Z,53.63
2022-11-24T15:57:41.376Z,53.45
2022-11-24T16:00:18.417Z,53.06
2022-11-24T16:02:55.134Z,53.38
2022-11-24T16:08:40.581Z,52.59
2022-11-24T16:15:15.773Z,52.19
2022-11-24T16:17:50.672Z,51.86
2022-11-24T16:20:25.178Z,52.40
2022-11-24T16:25:37.604Z,52.38
2022-11-24T16:28:07.485Z,52.53
2022-11-24T16:30:38.482Z,52.71
2022-11-24T16:33:08.292Z,52.77
2022-11-24T16:35:39.822Z,52.79
2022-11-24T16:38:08.548Z,52.79
2022-11-24T16:40:39.462Z,53.01
2022-11-24T16:43:08.163Z,53.12
2022-11-24T16:45:45.041Z,53.53
2022-11-24T16:48:15.803Z,53.45
2022-11-24T16:50:44.144Z,53.41
2022-11-24T16:53:13.302Z,53.43
2022-11-24T16:55:41.669Z,53.38
2022-11-24T16:58:11.010Z,53.44
2022-11-24T17:00:40.669Z,53.49
2022-11-24T17:03:08.999Z,53.47
2022-11-24T17:05:37.203Z,53.59
2022-11-24T17:08:06.065Z,53.62
2022-11-24T17:10:35.052Z,53.59
2022-11-24T17:13:05.080Z,53.67
2022-11-24T17:15:37.846Z,53.83
2022-11-24T17:18:26.827Z,53.78
2022-11-24T17:21:00.245Z,53.76
2022-11-24T17:23:30.438Z,53.94
2022-11-24T17:26:03.568Z,53.94
2022-11-24T17:28:32.376Z,53.69
2022-11-24T17:31:00.917Z,54.13
2022-11-24T17:33:31.563Z,54.21
2022-11-24T17:36:03.283Z,54.50
2022-11-24T17:38:32.212Z,54.33
2022-11-24T17:41:00.878Z,54.20
2022-11-24T17:43:29.495Z,54.18
2022-11-24T17:45:59.507Z,54.44
2022-11-24T17:48:28.269Z,54.37
2022-11-24T17:51:06.015Z,54.50
2022-11-24T17:53:34.185Z,54.58
2022-11-24T17:56:03.154Z,54.57
2022-11-24T17:58:32.844Z,54.54
2022-11-24T18:01:01.754Z,54.60
2022-11-24T18:03:31.813Z,54.52
2022-11-24T18:06:08.042Z,54.34
2022-11-24T18:08:48.652Z,54.24
2022-11-24T18:11:21.869Z,54.28
2022-11-24T18:13:59.950Z,54.19
2022-11-24T18:16:31.537Z,54.16
2022-11-24T18:19:11.315Z,53.92
2022-11-24T18:21:42.389Z,54.15
2022-11-24T18:24:11.806Z,54.14
2022-11-24T18:26:40.418Z,54.20
2022-11-24T18:29:09.348Z,54.12
2022-11-24T18:31:38.513Z,54.27
2022-11-24T18:34:07.636Z,54.31
2022-11-24T18:36:36.415Z,54.31
2022-11-24T18:39:08.686Z,54.30
2022-11-24T18:41:37.573Z,53.95
2022-11-24T18:44:12.238Z,54.29
2022-11-24T18:46:43.029Z,54.34
2022-11-24T18:49:11.346Z,54.45
2022-11-24T18:51:39.569Z,54.62
2022-11-24T18:54:11.744Z,54.45
2022-11-24T18:56:42.304Z,54.41
2022-11-24T18:59:15.493Z,54.18
2022-11-24T19:01:50.486Z,54.06
2022-11-24T19:04:36.081Z,54.43
2022-11-24T19:07:05.603Z,53.52
2022-11-24T19:09:37.522Z,54.06
2022-11-24T19:12:10.549Z,54.13
2022-11-24T19:14:41.475Z,54.64
2022-11-24T19:17:10.408Z,54.26
2022-11-24T19:19:40.184Z,54.78
2022-11-24T19:22:08.782Z,54.87
2022-11-24T19:24:39.209Z,55.22
2022-11-24T19:27:07.479Z,55.27
2022-11-24T19:29:41.731Z,55.13
2022-11-24T19:32:11.622Z,55.49
2022-11-24T19:34:40.071Z,55.20
2022-11-24T19:37:09.718Z,55.33
2022-11-24T19:39:40.689Z,55.32
2022-11-24T19:42:08.995Z,55.09
2022-11-24T19:44:37.825Z,55.29
2022-11-24T19:47:06.578Z,55.28
2022-11-24T19:49:35.571Z,55.49
2022-11-24T19:52:04.318Z,55.37
2022-11-24T19:54:34.361Z,55.25
2022-11-24T19:57:04.847Z,55.49
2022-11-24T19:59:33.713Z,55.03
2022-11-24T20:02:23.312Z,54.81
2022-11-24T20:04:56.262Z,55.10
2022-11-24T20:07:27.758Z,54.59
2022-11-24T20:10:11.728Z,54.82
2022-11-24T20:12:43.283Z,54.98
2022-11-24T20:15:25.126Z,54.94
2022-11-24T20:18:09.881Z,55.37
2022-11-24T20:23:22.386Z,55.33
2022-11-24T20:25:53.843Z,55.85
2022-11-24T20:28:41.138Z,55.89
2022-11-24T20:31:11.175Z,55.41
2022-11-24T20:33:39.598Z,55.67
2022-11-24T20:36:10.776Z,55.32
2022-11-24T20:38:41.326Z,55.20
2022-11-24T20:41:13.311Z,55.18
2022-11-24T20:43:46.829Z,55.07
2022-11-24T20:46:17.318Z,55.00
2022-11-24T20:48:46.575Z,54.78
2022-11-24T20:51:17.125Z,54.73
2022-11-24T20:53:48.807Z,54.63
2022-11-24T20:56:21.859Z,54.66
2022-11-24T20:58:54.523Z,54.20
2022-11-24T21:01:27.514Z,54.31
2022-11-24T21:03:59.372Z,54.15
2022-11-24T21:06:34.043Z,54.38
2022-11-24T21:09:13.336Z,53.94
2022-11-24T21:12:01.847Z,54.07
2022-11-24T21:18:52.820Z,54.59
2022-11-24T21:21:38.140Z,54.65
2022-11-24T21:24:40.822Z,54.24
2022-11-24T21:27:23.934Z,54.44
2022-11-24T21:29:52.182Z,54.66
2022-11-24T21:32:20.256Z,55.26
2022-11-24T21:34:49.176Z,55.56
2022-11-24T21:37:34.965Z,55.71
2022-11-24T21:43:05.508Z,56.13
2022-11-24T21:45:50.957Z,56.43
2022-11-24T21:51:48.122Z,57.62
2022-11-24T21:54:24.443Z,59.18
2022-11-24T21:57:01.185Z,58.78
2022-11-24T21:59:35.275Z,58.65
2022-11-24T22:02:06.693Z,58.43
2022-11-24T22:04:40.787Z,58.66
2022-11-24T22:07:16.104Z,58.57
2022-11-24T22:09:50.880Z,58.79
2022-11-24T22:25:44.046Z,58.21
2022-11-24T22:28:24.052Z,58.04
2022-11-24T22:31:09.181Z,58.69
2022-11-24T22:33:37.771Z,57.99
2022-11-24T22:36:13.315Z,58.16
2022-11-24T22:38:49.631Z,58.22
2022-11-24T22:45:00.879Z,58.02
2022-11-24T22:47:47.764Z,57.43
2022-11-24T22:51:00.219Z,57.34
2022-11-24T22:54:05.056Z,57.26
2022-11-24T22:57:01.763Z,57.00
2022-11-24T22:59:37.812Z,57.28
2022-11-24T23:02:11.013Z,57.66
2022-11-24T23:08:01.618Z,57.25
2022-11-24T23:16:31.319Z,56.40
2022-11-24T23:22:57.355Z,55.51
2022-11-24T23:34:41.269Z,54.24
2022-11-24T23:37:16.852Z,53.12
2022-11-24T23:40:03.938Z,52.57
2022-11-24T23:43:20.887Z,52.63
2022-11-24T23:49:56.006Z,52.25
2022-11-24T23:52:38.823Z,51.94
